Time;durP1;ratioP1;P1;durP2;ratioP2;P2;SDS_P1;SDS_P2;PMS_P1;PMS_P2;Temp;Humidity;BMP_temperature;BMP_pressure;BME280_temperature;BME280_humidity;BME280_pressure;Samples;Min_cycle;Max_cycle;Signal;HPM_P1;HPM_P2
2022/05/13 00:01:24;;;;;;;2.00;1.00;;;;;;;;;;5054224;28;20083;-77
2022/05/13 00:03:51;;;;;;;1.95;1.00;;;;;;;;;;5054568;28;20044;-77
2022/05/13 00:06:17;;;;;;;1.30;0.80;;;;;;;;;;5053043;28;20040;-77
2022/05/13 00:08:44;;;;;;;2.88;1.05;;;;;;;;;;5054311;28;20045;-77
2022/05/13 00:11:10;;;;;;;3.50;0.90;;;;;;;;;;5053905;28;20077;-77
2022/05/13 00:13:37;;;;;;;5.43;0.90;;;;;;;;;;5054339;28;20056;-77
2022/05/13 00:16:04;;;;;;;4.03;1.20;;;;;;;;;;5054046;28;20099;-77
2022/05/13 00:18:31;;;;;;;4.72;0.98;;;;;;;;;;5054380;28;20052;-76
2022/05/13 00:20:58;;;;;;;1.23;0.70;;;;;;;;;;5054149;28;20076;-77
2022/05/13 00:23:25;;;;;;;4.78;1.05;;;;;;;;;;5069233;28;20053;-76
2022/05/13 00:25:52;;;;;;;1.80;1.00;;;;;;;;;;5052937;28;20068;-77
2022/05/13 00:28:19;;;;;;;2.58;0.98;;;;;;;;;;5053685;28;20076;-77
2022/05/13 00:30:48;;;;;;;2.75;0.85;;;;;;;;;;5054036;28;20107;-77
2022/05/13 00:33:16;;;;;;;5.55;1.52;;;;;;;;;;5053911;28;20053;-77
2022/05/13 00:35:42;;;;;;;2.83;1.02;;;;;;;;;;5053810;28;20076;-77
2022/05/13 00:38:09;;;;;;;6.70;1.90;;;;;;;;;;5053516;28;20091;-77
2022/05/13 00:40:35;;;;;;;2.60;1.00;;;;;;;;;;5053570;28;20049;-77
2022/05/13 00:43:07;;;;;;;5.03;1.48;;;;;;;;;;5052596;28;20103;-77
2022/05/13 00:45:34;;;;;;;3.97;1.25;;;;;;;;;;5052501;28;20055;-77
2022/05/13 00:48:00;;;;;;;3.22;1.05;;;;;;;;;;5053492;28;20478;-77
2022/05/13 00:50:31;;;;;;;3.80;1.57;;;;;;;;;;5053371;28;20060;-76
2022/05/13 00:52:57;;;;;;;2.15;1.10;;;;;;;;;;5053067;28;20053;-77
2022/05/13 00:55:30;;;;;;;4.63;1.90;;;;;;;;;;5053114;28;20130;-77
2022/05/13 00:57:57;;;;;;;5.32;1.30;;;;;;;;;;5052295;28;20045;-77
2022/05/13 01:00:24;;;;;;;2.15;1.20;;;;;;;;;;5052087;28;20080;-78
2022/05/13 01:02:50;;;;;;;3.72;1.45;;;;;;;;;;5053481;28;20193;-77
2022/05/13 01:05:18;;;;;;;4.20;1.30;;;;;;;;;;5053200;28;20111;-78
2022/05/13 01:07:45;;;;;;;2.97;1.30;;;;;;;;;;5052957;28;20182;-78
2022/05/13 01:10:14;;;;;;;2.15;1.13;;;;;;;;;;5053230;28;20102;-78
2022/05/13 01:12:44;;;;;;;5.10;1.55;;;;;;;;;;5051928;28;20076;-77
2022/05/13 01:15:13;;;;;;;2.55;1.05;;;;;;;;;;5052961;28;20077;-77
2022/05/13 01:20:27;;;;;;;4.68;1.27;;;;;;;;;;5052722;28;20139;-76
2022/05/13 01:23:00;;;;;;;4.25;1.60;;;;;;;;;;5052686;28;20497;-77
2022/05/13 01:25:28;;;;;;;2.72;1.08;;;;;;;;;;5053042;28;20045;-76
2022/05/13 01:27:56;;;;;;;4.45;2.03;;;;;;;;;;5052894;28;20082;-77
2022/05/13 01:30:22;;;;;;;;;;;;;;;;;;5053091;28;20068;-78
2022/05/13 01:32:49;;;;;;;1.98;1.10;;;;;;;;;;5052523;28;19966;-77
2022/05/13 01:35:15;;;;;;;4.43;1.30;;;;;;;;;;5052814;28;20557;-77
2022/05/13 01:37:42;;;;;;;5.57;1.50;;;;;;;;;;5052574;28;20409;-77
2022/05/13 01:40:09;;;;;;;7.22;1.63;;;;;;;;;;5051068;28;20075;-77
2022/05/13 01:42:36;;;;;;;;;;;;;;;;;;5053095;28;20045;-77
2022/05/13 01:45:03;;;;;;;5.50;1.20;;;;;;;;;;5052331;28;20375;-76
2022/05/13 01:47:30;;;;;;;5.88;1.10;;;;;;;;;;5052353;28;20049;-77
2022/05/13 01:49:56;;;;;;;3.70;1.08;;;;;;;;;;5051895;28;20045;-77
2022/05/13 01:52:23;;;;;;;5.15;1.30;;;;;;;;;;5051062;28;20053;-77
2022/05/13 01:54:50;;;;;;;4.57;1.38;;;;;;;;;;5051128;28;20049;-77
2022/05/13 01:57:17;;;;;;;3.67;1.55;;;;;;;;;;5052425;28;20084;-77
2022/05/13 01:59:43;;;;;;;5.30;1.20;;;;;;;;;;5052182;28;20140;-77
2022/05/13 02:02:10;;;;;;;3.53;1.20;;;;;;;;;;5052138;28;20130;-77
2022/05/13 02:04:37;;;;;;;3.88;1.25;;;;;;;;;;5050081;28;20515;-77
2022/05/13 02:07:03;;;;;;;3.37;1.40;;;;;;;;;;5050591;28;20072;-77
2022/05/13 02:09:30;;;;;;;3.83;1.50;;;;;;;;;;5051941;28;20072;-77
2022/05/13 02:11:57;;;;;;;4.60;1.50;;;;;;;;;;5051831;28;20057;-77
2022/05/13 02:14:23;;;;;;;8.98;1.67;;;;;;;;;;5051946;28;20091;-77
2022/05/13 02:16:50;;;;;;;4.78;1.83;;;;;;;;;;5040996;28;20083;-77
2022/05/13 02:19:17;;;;;;;4.25;1.50;;;;;;;;;;5049372;28;20052;-78
2022/05/13 02:21:43;;;;;;;3.40;1.10;;;;;;;;;;5051827;28;20053;-77
2022/05/13 02:24:10;;;;;;;5.05;1.50;;;;;;;;;;5050649;28;20076;-77
2022/05/13 02:26:36;;;;;;;5.82;1.65;;;;;;;;;;5051701;28;20641;-78
2022/05/13 02:29:03;;;;;;;6.03;1.10;;;;;;;;;;5051574;28;20500;-78
2022/05/13 02:31:30;;;;;;;4.68;1.38;;;;;;;;;;5051542;28;20091;-77
2022/05/13 02:33:57;;;;;;;6.43;1.20;;;;;;;;;;5051795;28;20053;-77
2022/05/13 02:36:24;;;;;;;8.70;1.95;;;;;;;;;;5051733;28;20136;-77
2022/05/13 02:38:51;;;;;;;8.40;1.60;;;;;;;;;;5051659;28;20517;-77
2022/05/13 02:41:17;;;;;;;6.35;1.42;;;;;;;;;;5051629;28;20484;-77
2022/05/13 02:43:50;;;;;;;4.80;1.35;;;;;;;;;;5051749;28;20441;-78
2022/05/13 02:46:18;;;;;;;6.53;1.88;;;;;;;;;;5051674;28;20106;-77
2022/05/13 02:48:46;;;;;;;4.38;1.10;;;;;;;;;;5051279;28;20057;-77
2022/05/13 02:51:13;;;;;;;4.70;1.30;;;;;;;;;;5051513;28;20472;-77
2022/05/13 02:53:40;;;;;;;5.27;1.23;;;;;;;;;;5051668;28;20053;-77
2022/05/13 02:56:07;;;;;;;4.90;1.35;;;;;;;;;;5051395;28;20085;-77
2022/05/13 02:58:37;;;;;;;4.45;1.30;;;;;;;;;;5051515;28;20079;-77
2022/05/13 03:01:04;;;;;;;4.15;1.17;;;;;;;;;;5051572;28;20087;-77
2022/05/13 03:03:32;;;;;;;9.82;1.77;;;;;;;;;;5051219;28;20065;-77
2022/05/13 03:05:59;;;;;;;4.70;1.30;;;;;;;;;;5051373;28;20044;-77
2022/05/13 03:08:26;;;;;;;6.83;1.90;;;;;;;;;;5051229;28;20057;-77
2022/05/13 03:10:52;;;;;;;3.92;1.30;;;;;;;;;;5051174;28;20053;-77
2022/05/13 03:13:19;;;;;;;5.10;1.55;;;;;;;;;;5051192;28;20489;-78
2022/05/13 03:15:46;;;;;;;5.00;1.50;;;;;;;;;;5052615;28;20057;-77
2022/05/13 03:18:13;;;;;;;2.40;1.27;;;;;;;;;;5055134;28;20502;-77
2022/05/13 03:20:40;;;;;;;7.63;1.40;;;;;;;;;;5054940;28;20084;-77
2022/05/13 03:23:06;;;;;;;6.20;1.45;;;;;;;;;;5054989;28;20076;-77
2022/05/13 03:25:33;;;;;;;6.13;1.38;;;;;;;;;;5053930;28;20045;-76
2022/05/13 03:27:59;;;;;;;3.88;1.73;;;;;;;;;;5054982;28;20076;-77
2022/05/13 03:30:26;;;;;;;7.13;1.60;;;;;;;;;;5053991;28;20084;-77
2022/05/13 03:32:53;;;;;;;3.70;1.10;;;;;;;;;;5054891;28;20445;-77
2022/05/13 03:35:20;;;;;;;6.05;1.77;;;;;;;;;;5055111;28;20080;-76
2022/05/13 03:37:46;;;;;;;3.63;1.10;;;;;;;;;;5054770;28;20081;-77
2022/05/13 03:40:14;;;;;;;4.65;1.50;;;;;;;;;;5053812;28;20111;-77
2022/05/13 03:42:40;;;;;;;5.25;1.52;;;;;;;;;;5054903;28;20131;-78
2022/05/13 03:45:08;;;;;;;7.72;1.40;;;;;;;;;;5054626;28;20125;-78
2022/05/13 03:47:34;;;;;;;5.75;1.48;;;;;;;;;;5054841;28;20080;-77
2022/05/13 03:50:02;;;;;;;4.28;1.50;;;;;;;;;;5054565;28;20080;-77
2022/05/13 03:52:30;;;;;;;5.13;1.60;;;;;;;;;;5054701;28;20056;-77
2022/05/13 03:54:57;;;;;;;6.50;1.63;;;;;;;;;;5054671;28;20106;-77
2022/05/13 03:57:23;;;;;;;7.85;1.85;;;;;;;;;;5053117;28;20096;-77
2022/05/13 03:59:49;;;;;;;6.40;1.50;;;;;;;;;;5054591;28;20084;-77
2022/05/13 04:02:16;;;;;;;5.80;2.40;;;;;;;;;;5054258;28;20076;-77
2022/05/13 04:10:23;;;;;;;5.85;1.73;;;;;;;;;;5049473;28;20053;-77
2022/05/13 04:18:19;;;;;;;5.03;1.70;;;;;;;;;;5054355;28;20473;-77
2022/05/13 04:20:47;;;;;;;6.07;1.92;;;;;;;;;;5052776;28;20061;-77
2022/05/13 04:23:14;;;;;;;5.53;1.88;;;;;;;;;;5054124;28;20132;-78
2022/05/13 04:25:40;;;;;;;6.78;1.70;;;;;;;;;;5053810;28;20083;-77
2022/05/13 04:28:07;;;;;;;5.63;1.52;;;;;;;;;;5053422;28;20084;-77
2022/05/13 04:30:33;;;;;;;5.82;2.47;;;;;;;;;;5053935;28;20080;-77
2022/05/13 04:33:00;;;;;;;4.70;2.55;;;;;;;;;;5053962;28;20466;-77
2022/05/13 04:35:26;;;;;;;8.35;2.05;;;;;;;;;;5053962;28;20132;-78
2022/05/13 04:37:52;;;;;;;8.25;1.85;;;;;;;;;;5053548;28;20081;-77
2022/05/13 04:40:19;;;;;;;6.53;1.88;;;;;;;;;;5053785;28;20084;-77
2022/05/13 04:42:51;;;;;;;5.43;1.95;;;;;;;;;;5053722;28;20083;-78
2022/05/13 04:45:24;;;;;;;5.85;1.67;;;;;;;;;;5053480;28;20119;-78
2022/05/13 04:50:39;;;;;;;6.15;2.47;;;;;;;;;;5053731;28;20527;-78
2022/05/13 04:53:07;;;;;;;9.05;2.42;;;;;;;;;;5053659;28;20102;-77
2022/05/13 04:55:34;;;;;;;5.05;1.98;;;;;;;;;;5053335;28;20076;-77
2022/05/13 04:58:00;;;;;;;6.85;1.75;;;;;;;;;;5053472;28;20501;-77
2022/05/13 05:00:27;;;;;;;8.38;2.30;;;;;;;;;;5053540;28;20119;-77
2022/05/13 05:02:53;;;;;;;6.07;2.03;;;;;;;;;;5052056;28;20076;-78
2022/05/13 05:05:20;;;;;;;9.75;2.08;;;;;;;;;;5053260;28;20077;-77
2022/05/13 05:07:47;;;;;;;9.02;2.08;;;;;;;;;;5053394;28;20204;-77
2022/05/13 05:10:14;;;;;;;4.82;1.80;;;;;;;;;;5052976;28;20077;-78
2022/05/13 05:12:40;;;;;;;6.03;1.75;;;;;;;;;;5053332;28;20053;-77
2022/05/13 05:15:07;;;;;;;7.35;2.00;;;;;;;;;;5053261;28;20128;-77
2022/05/13 05:17:34;;;;;;;5.10;2.10;;;;;;;;;;5052815;28;20508;-77
2022/05/13 05:20:00;;;;;;;8.25;2.42;;;;;;;;;;5052954;28;20139;-77
2022/05/13 05:22:26;;;;;;;8.00;2.03;;;;;;;;;;5052844;28;20501;-77
2022/05/13 05:24:53;;;;;;;9.48;1.90;;;;;;;;;;5052971;28;20072;-77
2022/05/13 05:27:19;;;;;;;4.82;2.08;;;;;;;;;;5052929;28;20096;-77
2022/05/13 05:29:46;;;;;;;6.65;2.33;;;;;;;;;;5052654;28;20060;-77
2022/05/13 05:32:13;;;;;;;6.57;1.97;;;;;;;;;;5052616;28;20383;-77
2022/05/13 05:34:40;;;;;;;6.75;2.05;;;;;;;;;;5052921;28;20131;-77
2022/05/13 05:37:07;;;;;;;6.60;1.90;;;;;;;;;;5051407;28;20508;-77
2022/05/13 05:39:34;;;;;;;7.38;1.92;;;;;;;;;;5050491;28;20045;-77
2022/05/13 05:42:00;;;;;;;7.53;2.15;;;;;;;;;;5052968;28;20678;-77
2022/05/13 05:44:27;;;;;;;6.13;1.92;;;;;;;;;;5052273;28;20045;-77
2022/05/13 05:46:53;;;;;;;8.48;2.00;;;;;;;;;;5052463;28;20048;-77
2022/05/13 05:49:19;;;;;;;6.50;2.05;;;;;;;;;;5052137;28;20056;-77
2022/05/13 05:51:46;;;;;;;7.10;2.50;;;;;;;;;;5052543;28;20091;-77
2022/05/13 05:57:16;;;;;;;10.07;2.28;;;;;;;;;;5052228;28;20496;-77
2022/05/13 05:59:43;;;;;;;6.15;2.20;;;;;;;;;;5052097;28;20468;-77
2022/05/13 06:02:09;;;;;;;7.60;2.72;;;;;;;;;;5052128;28;20045;-84
2022/05/13 06:04:36;;;;;;;6.75;2.60;;;;;;;;;;5052331;28;20099;-77
2022/05/13 06:07:04;;;;;;;10.25;2.45;;;;;;;;;;5067679;28;20127;-77
2022/05/13 06:09:30;;;;;;;5.38;2.35;;;;;;;;;;5052246;28;20084;-77
2022/05/13 06:11:57;;;;;;;5.45;2.08;;;;;;;;;;5051808;28;20114;-76
2022/05/13 06:14:23;;;;;;;6.80;2.78;;;;;;;;;;5051756;28;20095;-77
2022/05/13 06:16:51;;;;;;;7.70;2.10;;;;;;;;;;5052004;28;20077;-76
2022/05/13 06:19:17;;;;;;;11.30;3.25;;;;;;;;;;5048594;28;20106;-76
2022/05/13 06:21:44;;;;;;;7.65;2.45;;;;;;;;;;5051005;28;20045;-78
2022/05/13 06:24:10;;;;;;;6.88;2.35;;;;;;;;;;5050975;28;20076;-72
2022/05/13 06:26:37;;;;;;;8.30;2.42;;;;;;;;;;5051259;28;20094;-74
2022/05/13 06:29:05;;;;;;;5.55;2.38;;;;;;;;;;5051197;28;20083;-80
2022/05/13 06:31:31;;;;;;;9.80;2.65;;;;;;;;;;5050304;28;20049;-72
2022/05/13 06:33:58;;;;;;;5.68;1.83;;;;;;;;;;5047201;28;20045;-74
2022/05/13 06:36:24;;;;;;;5.75;2.38;;;;;;;;;;5051422;28;20048;-73
2022/05/13 06:38:50;;;;;;;7.32;2.05;;;;;;;;;;5051383;28;20081;-73
2022/05/13 06:41:17;;;;;;;10.68;3.17;;;;;;;;;;5051118;28;20068;-72
2022/05/13 06:43:44;;;;;;;5.30;1.95;;;;;;;;;;5051545;28;20092;-74
2022/05/13 06:46:11;;;;;;;7.95;2.55;;;;;;;;;;5051101;28;20505;-74
2022/05/13 06:48:44;;;;;;;3.88;1.80;;;;;;;;;;5049539;28;20049;-75
2022/05/13 06:51:11;;;;;;;8.75;2.00;;;;;;;;;;5051232;28;20049;-75
2022/05/13 06:53:37;;;;;;;8.40;2.40;;;;;;;;;;5054209;28;20048;-75
2022/05/13 06:56:04;;;;;;;6.07;2.15;;;;;;;;;;5054061;28;20060;-85
2022/05/13 06:58:30;;;;;;;9.70;2.78;;;;;;;;;;5055176;28;20104;-73
2022/05/13 07:00:57;;;;;;;9.18;2.25;;;;;;;;;;5055204;28;20072;-75
2022/05/13 07:03:23;;;;;;;7.45;2.03;;;;;;;;;;5055340;28;20063;-76
2022/05/13 07:05:50;;;;;;;5.75;1.90;;;;;;;;;;5054936;28;20159;-77
2022/05/13 07:08:16;;;;;;;8.02;2.38;;;;;;;;;;5054080;28;20045;-77
2022/05/13 07:10:43;;;;;;;8.02;1.98;;;;;;;;;;5055029;28;20076;-75
2022/05/13 07:13:10;;;;;;;6.30;2.17;;;;;;;;;;5055444;28;20531;-76
2022/05/13 07:15:37;;;;;;;;;;;;;;;;;;5055874;28;20493;-80
2022/05/13 07:18:03;;;;;;;8.52;1.98;;;;;;;;;;5054180;28;19921;-77
2022/05/13 07:20:30;;;;;;;3.75;1.63;;;;;;;;;;5055355;28;20080;-75
2022/05/13 07:22:56;;;;;;;6.20;1.88;;;;;;;;;;5055320;28;20157;-75
2022/05/13 07:25:24;;;;;;;3.15;1.20;;;;;;;;;;5054871;28;20048;-75
2022/05/13 07:27:50;;;;;;;6.00;1.70;;;;;;;;;;5053599;28;20041;-75
2022/05/13 07:30:17;;;;;;;4.07;1.37;;;;;;;;;;5054620;28;20500;-80
2022/05/13 07:32:43;;;;;;;6.67;1.37;;;;;;;;;;5053837;28;20131;-78
2022/05/13 07:35:10;;;;;;;5.15;1.30;;;;;;;;;;5054551;28;20076;-76
2022/05/13 07:37:36;;;;;;;4.03;1.40;;;;;;;;;;5055301;28;20130;-76
2022/05/13 07:42:49;;;;;;;5.13;1.38;;;;;;;;;;5054894;28;20141;-76
2022/05/13 07:45:16;;;;;;;3.83;1.30;;;;;;;;;;5055035;28;20044;-76
2022/05/13 07:47:42;;;;;;;5.55;1.48;;;;;;;;;;5054416;28;20084;-76
2022/05/13 07:50:14;;;;;;;5.07;1.50;;;;;;;;;;5053543;28;20103;-77
2022/05/13 07:52:41;;;;;;;4.82;1.52;;;;;;;;;;5054897;28;20296;-76
2022/05/13 07:55:10;;;;;;;6.93;1.52;;;;;;;;;;5054350;28;20128;-74
2022/05/13 07:57:40;;;;;;;6.28;1.40;;;;;;;;;;5054733;28;20099;-76
2022/05/13 08:00:26;;;;;;;3.90;1.35;;;;;;;;;;5054229;28;20099;-76
2022/05/13 08:02:54;;;;;;;5.40;1.45;;;;;;;;;;5052217;28;20168;-76
2022/05/13 08:05:22;;;;;;;4.75;1.58;;;;;;;;;;5054215;28;20041;-75
2022/05/13 08:07:48;;;;;;;;;;;;;;;;;;5053359;28;20045;-76
2022/05/13 08:10:15;;;;;;;3.58;1.10;;;;;;;;;;5053266;28;19956;-77
2022/05/13 08:12:43;;;;;;;4.23;1.40;;;;;;;;;;5053773;28;20489;-75
2022/05/13 08:15:10;;;;;;;7.15;1.70;;;;;;;;;;5052450;28;20123;-76
2022/05/13 08:17:36;;;;;;;5.05;1.55;;;;;;;;;;5054273;28;20076;-76
2022/05/13 08:20:03;;;;;;;5.78;1.90;;;;;;;;;;5053763;28;20045;-76
2022/05/13 08:22:29;;;;;;;8.60;1.67;;;;;;;;;;5053656;28;20098;-75
2022/05/13 08:24:56;;;;;;;9.45;1.83;;;;;;;;;;5053625;28;20049;-76
2022/05/13 08:27:22;;;;;;;5.40;1.58;;;;;;;;;;5053356;28;20072;-75
2022/05/13 08:29:49;;;;;;;6.30;1.33;;;;;;;;;;5052008;28;20071;-76
2022/05/13 08:32:15;;;;;;;4.55;1.25;;;;;;;;;;5053631;28;20118;-76
2022/05/13 08:34:41;;;;;;;8.43;1.95;;;;;;;;;;5053767;28;20445;-76
2022/05/13 08:37:29;;;;;;;6.97;1.80;;;;;;;;;;5052309;28;20053;-76
2022/05/13 08:39:58;;;;;;;4.60;1.33;;;;;;;;;;5053390;28;20098;-76
2022/05/13 08:42:38;;;;;;;6.45;1.38;;;;;;;;;;5053767;28;20444;-76
2022/05/13 08:45:08;;;;;;;9.45;1.60;;;;;;;;;;5053447;28;20052;-76
2022/05/13 08:47:53;;;;;;;6.18;1.38;;;;;;;;;;5052028;28;20124;-76
2022/05/13 08:50:25;;;;;;;3.83;1.35;;;;;;;;;;5052621;28;20052;-76
2022/05/13 08:53:11;;;;;;;5.45;1.70;;;;;;;;;;5052538;28;20448;-76
2022/05/13 08:55:42;;;;;;;4.60;1.38;;;;;;;;;;5053494;28;20055;-76
2022/05/13 08:58:12;;;;;;;5.38;1.45;;;;;;;;;;5052338;28;20048;-77
2022/05/13 09:00:41;;;;;;;5.20;1.23;;;;;;;;;;5053091;28;20088;-76
2022/05/13 09:03:14;;;;;;;4.75;1.00;;;;;;;;;;5053378;28;20045;-76
2022/05/13 09:05:48;;;;;;;6.35;1.30;;;;;;;;;;5050990;28;20088;-73
2022/05/13 09:08:14;;;;;;;5.15;1.40;;;;;;;;;;5051756;28;20041;-75
2022/05/13 09:10:49;;;;;;;5.20;1.38;;;;;;;;;;5051559;28;20094;-74
2022/05/13 09:13:21;;;;;;;8.00;3.58;;;;;;;;;;5051282;28;20041;-74
2022/05/13 09:15:50;;;;;;;8.98;5.05;;;;;;;;;;5050443;28;20099;-73
2022/05/13 09:18:22;;;;;;;8.98;4.75;;;;;;;;;;5051813;28;20451;-73
2022/05/13 09:20:51;;;;;;;16.75;7.30;;;;;;;;;;5051926;28;20052;-73
2022/05/13 09:23:18;;;;;;;3.80;2.40;;;;;;;;;;5045552;28;20080;-72
2022/05/13 09:26:03;;;;;;;6.38;1.67;;;;;;;;;;5051463;28;20464;-73
2022/05/13 09:28:30;;;;;;;4.30;2.45;;;;;;;;;;5051394;28;20049;-73
2022/05/13 09:31:26;;;;;;;7.50;1.88;;;;;;;;;;5051477;28;20057;-74
2022/05/13 09:34:25;;;;;;;5.65;2.67;;;;;;;;;;5048282;28;20174;-74
2022/05/13 09:36:51;;;;;;;5.65;2.10;;;;;;;;;;5050933;28;20544;-74
2022/05/13 09:39:17;;;;;;;5.25;1.58;;;;;;;;;;5051260;28;20106;-74
2022/05/13 09:41:44;;;;;;;5.23;2.37;;;;;;;;;;5049618;28;20056;-74
2022/05/13 09:44:21;;;;;;;7.13;1.70;;;;;;;;;;5051445;28;20049;-73
2022/05/13 09:47:08;;;;;;;5.82;1.58;;;;;;;;;;5051205;28;20151;-73
2022/05/13 09:49:55;;;;;;;7.65;1.80;;;;;;;;;;5051275;28;20056;-74
2022/05/13 09:52:35;;;;;;;6.63;1.75;;;;;;;;;;5051717;28;20079;-74
2022/05/13 09:55:13;;;;;;;3.92;1.20;;;;;;;;;;5050700;28;20547;-74
2022/05/13 09:57:40;;;;;;;5.03;1.23;;;;;;;;;;5050851;28;20103;-74
2022/05/13 10:00:15;;;;;;;5.53;1.40;;;;;;;;;;5050733;28;20076;-74
2022/05/13 10:02:43;;;;;;;4.75;1.20;;;;;;;;;;5051195;28;20049;-73
2022/05/13 10:05:13;;;;;;;2.33;0.90;;;;;;;;;;5050941;28;20096;-74
2022/05/13 10:07:49;;;;;;;6.45;1.58;;;;;;;;;;5051213;28;20041;-75
2022/05/13 10:16:07;;;;;;;3.65;1.20;;;;;;;;;;5050087;28;20068;-74
2022/05/13 10:18:37;;;;;;;3.97;1.30;;;;;;;;;;5050602;28;20080;-74
2022/05/13 10:21:13;;;;;;;6.32;1.80;;;;;;;;;;5050290;28;20076;-75
2022/05/13 10:24:02;;;;;;;5.35;1.20;;;;;;;;;;5048384;28;20126;-74
2022/05/13 10:26:34;;;;;;;5.70;1.15;;;;;;;;;;5045875;28;20505;-74
2022/05/13 10:29:10;;;;;;;5.85;1.40;;;;;;;;;;5050500;28;20045;-74
2022/05/13 10:31:41;;;;;;;4.40;1.05;;;;;;;;;;5050412;28;20099;-74
2022/05/13 10:34:07;;;;;;;3.88;1.17;;;;;;;;;;5050254;28;20067;-75
2022/05/13 10:36:34;;;;;;;4.87;0.90;;;;;;;;;;5050806;28;20048;-74
2022/05/13 10:39:10;;;;;;;4.73;0.90;;;;;;;;;;5050385;28;20321;-75
2022/05/13 10:41:39;;;;;;;5.85;1.15;;;;;;;;;;5050790;28;20061;-75
2022/05/13 10:44:19;;;;;;;5.60;1.30;;;;;;;;;;5050304;28;20085;-75
2022/05/13 10:47:05;;;;;;;5.63;1.20;;;;;;;;;;5050743;28;20072;-76
2022/05/13 10:49:38;;;;;;;8.45;2.50;;;;;;;;;;5049660;28;20128;-75
2022/05/13 10:52:23;;;;;;;6.63;1.70;;;;;;;;;;5050060;28;20099;-75
2022/05/13 10:54:56;;;;;;;3.58;1.35;;;;;;;;;;5050375;28;20089;-75
2022/05/13 10:57:42;;;;;;;8.13;1.20;;;;;;;;;;5048908;28;20548;-75
2022/05/13 11:00:11;;;;;;;6.03;1.33;;;;;;;;;;5050760;28;20118;-75
2022/05/13 11:02:57;;;;;;;5.68;1.35;;;;;;;;;;5050397;28;20080;-77
2022/05/13 11:05:33;;;;;;;6.07;1.52;;;;;;;;;;5049396;28;20048;-74
2022/05/13 11:07:59;;;;;;;4.72;1.25;;;;;;;;;;5050600;28;20076;-75
2022/05/13 11:10:41;;;;;;;3.97;1.65;;;;;;;;;;5050486;28;20049;-74
2022/05/13 11:13:16;;;;;;;4.70;1.20;;;;;;;;;;5050488;28;20085;-73
2022/05/13 11:15:43;;;;;;;4.57;2.25;;;;;;;;;;5050497;28;20063;-74
2022/05/13 11:18:12;;;;;;;5.15;1.52;;;;;;;;;;5050086;28;20053;-74
2022/05/13 11:20:52;;;;;;;4.85;1.73;;;;;;;;;;5050439;28;20076;-74
2022/05/13 11:23:18;;;;;;;4.60;1.60;;;;;;;;;;5048281;28;20045;-74
2022/05/13 11:26:08;;;;;;;5.45;1.58;;;;;;;;;;5050073;28;20493;-74
2022/05/13 11:28:55;;;;;;;5.07;1.67;;;;;;;;;;5050313;28;20060;-74
2022/05/13 11:31:27;;;;;;;4.10;1.05;;;;;;;;;;5049758;28;20041;-73
2022/05/13 11:34:12;;;;;;;5.18;1.00;;;;;;;;;;5049734;28;20564;-74
2022/05/13 11:36:39;;;;;;;1.75;0.95;;;;;;;;;;5050737;28;20424;-73
2022/05/13 11:39:24;;;;;;;5.00;1.30;;;;;;;;;;5047020;28;20118;-73
2022/05/13 11:41:55;;;;;;;4.78;1.20;;;;;;;;;;5053715;28;20752;-74
2022/05/13 11:44:42;;;;;;;4.60;1.15;;;;;;;;;;5053531;28;20049;-74
2022/05/13 11:47:17;;;;;;;4.88;1.30;;;;;;;;;;5053487;28;20118;-74
2022/05/13 11:49:45;;;;;;;3.40;1.02;;;;;;;;;;5052982;28;20088;-74
2022/05/13 11:52:11;;;;;;;3.15;1.10;;;;;;;;;;5053297;28;20068;-74
2022/05/13 11:54:40;;;;;;;3.70;1.08;;;;;;;;;;5053163;28;20092;-75
2022/05/13 11:57:24;;;;;;;5.15;1.33;;;;;;;;;;5053306;28;20127;-74
2022/05/13 11:59:52;;;;;;;4.78;1.30;;;;;;;;;;5053062;28;20162;-74
2022/05/13 12:02:33;;;;;;;4.80;1.52;;;;;;;;;;5053383;28;20048;-74
2022/05/13 12:05:08;;;;;;;3.45;1.90;;;;;;;;;;5052753;28;20045;-74
2022/05/13 12:07:53;;;;;;;2.67;1.13;;;;;;;;;;5052749;28;20072;-76
2022/05/13 12:10:30;;;;;;;4.82;1.65;;;;;;;;;;5053169;28;20083;-74
2022/05/13 12:12:56;;;;;;;;;;;;;;;;;;5053399;28;20076;-74
2022/05/13 12:15:38;;;;;;;6.20;2.15;;;;;;;;;;5053115;28;19971;-74
2022/05/13 12:18:24;;;;;;;4.90;1.05;;;;;;;;;;5053212;28;20041;-74
2022/05/13 12:21:09;;;;;;;5.30;1.50;;;;;;;;;;5053262;28;20106;-75
2022/05/13 12:23:51;;;;;;;3.50;1.20;;;;;;;;;;5050548;28;20065;-72
2022/05/13 12:26:20;;;;;;;3.70;1.70;;;;;;;;;;5052849;28;20080;-76
2022/05/13 12:28:55;;;;;;;4.30;1.33;;;;;;;;;;5052705;28;20473;-76
2022/05/13 12:31:22;;;;;;;5.68;1.60;;;;;;;;;;5048843;28;20065;-75
2022/05/13 12:37:33;;;;;;;3.58;1.20;;;;;;;;;;5053260;28;20111;-74
2022/05/13 12:40:04;;;;;;;6.00;1.30;;;;;;;;;;5052480;28;20103;-75
2022/05/13 12:42:51;;;;;;;5.85;1.30;;;;;;;;;;5041966;28;20053;-75
2022/05/13 12:45:18;;;;;;;6.13;1.40;;;;;;;;;;5052544;28;20052;-78
2022/05/13 12:47:56;;;;;;;3.95;1.25;;;;;;;;;;5051878;28;20084;-78
2022/05/13 12:50:42;;;;;;;4.60;1.10;;;;;;;;;;5046347;28;20259;-75
2022/05/13 12:53:27;;;;;;;6.30;1.30;;;;;;;;;;5032156;28;20111;-78
2022/05/13 12:56:15;;;;;;;5.35;1.10;;;;;;;;;;5044005;28;20048;-75
2022/05/13 12:58:43;;;;;;;4.72;1.30;;;;;;;;;;5046279;28;20076;-77
2022/05/13 13:01:10;;;;;;;4.57;1.20;;;;;;;;;;5052685;28;20076;-74
2022/05/13 13:03:38;;;;;;;4.43;1.23;;;;;;;;;;5048744;28;20045;-76
2022/05/13 13:06:16;;;;;;;4.50;0.90;;;;;;;;;;5050815;28;20076;-77
2022/05/13 13:08:43;;;;;;;4.25;1.10;;;;;;;;;;5050591;28;20037;-75
2022/05/13 13:11:13;;;;;;;5.13;1.40;;;;;;;;;;5051859;28;20080;-77
2022/05/13 13:13:39;;;;;;;3.85;1.00;;;;;;;;;;5050202;28;20053;-76
2022/05/13 13:16:22;;;;;;;4.22;1.10;;;;;;;;;;5051415;28;20501;-72
2022/05/13 13:19:03;;;;;;;3.92;1.30;;;;;;;;;;5050634;28;20156;-73
2022/05/13 13:21:30;;;;;;;3.97;1.00;;;;;;;;;;5051784;28;20088;-73
2022/05/13 13:23:57;;;;;;;2.40;1.08;;;;;;;;;;5049685;28;20155;-73
2022/05/13 13:26:23;;;;;;;4.00;1.08;;;;;;;;;;5051066;28;20052;-73
2022/05/13 13:28:52;;;;;;;5.18;1.33;;;;;;;;;;5051544;28;20083;-74
2022/05/13 13:31:25;;;;;;;4.22;1.30;;;;;;;;;;5051509;28;20148;-75
2022/05/13 13:33:56;;;;;;;2.22;1.00;;;;;;;;;;5066564;28;20061;-77
2022/05/13 13:36:30;;;;;;;5.68;1.17;;;;;;;;;;5051312;28;20088;-78
2022/05/13 13:39:16;;;;;;;3.70;1.25;;;;;;;;;;5051159;28;20056;-77
2022/05/13 13:41:46;;;;;;;3.13;1.10;;;;;;;;;;5051599;28;20045;-77
2022/05/13 13:44:13;;;;;;;3.28;1.45;;;;;;;;;;5051090;28;20083;-77
2022/05/13 13:46:41;;;;;;;5.50;1.50;;;;;;;;;;5051484;28;20132;-77
2022/05/13 13:49:08;;;;;;;3.50;1.27;;;;;;;;;;5051201;28;20098;-77
2022/05/13 13:51:46;;;;;;;3.85;1.35;;;;;;;;;;5051174;28;20512;-76
2022/05/13 13:54:15;;;;;;;4.32;1.42;;;;;;;;;;5050900;28;20057;-76
2022/05/13 13:56:48;;;;;;;6.25;1.60;;;;;;;;;;5050765;28;20084;-75
2022/05/13 13:59:25;;;;;;;6.07;1.88;;;;;;;;;;5049483;28;20102;-75
2022/05/13 14:01:55;;;;;;;3.65;1.20;;;;;;;;;;5049913;28;20485;-76
2022/05/13 14:04:24;;;;;;;4.00;1.40;;;;;;;;;;5050726;28;20045;-76
2022/05/13 14:06:51;;;;;;;4.35;1.40;;;;;;;;;;5050718;28;20107;-75
2022/05/13 14:09:30;;;;;;;4.32;1.42;;;;;;;;;;5050839;28;20075;-76
2022/05/13 14:11:57;;;;;;;2.55;1.33;;;;;;;;;;5050748;28;20079;-77
2022/05/13 14:14:45;;;;;;;4.90;1.17;;;;;;;;;;5051308;28;20493;-78
2022/05/13 14:17:12;;;;;;;8.02;1.70;;;;;;;;;;5051867;28;20084;-77
2022/05/13 14:19:43;;;;;;;4.75;1.40;;;;;;;;;;5050431;28;20588;-77
2022/05/13 14:22:10;;;;;;;8.48;1.48;;;;;;;;;;5050226;28;20063;-74
2022/05/13 14:24:38;;;;;;;4.32;1.25;;;;;;;;;;5050078;28;20115;-75
2022/05/13 14:27:07;;;;;;;4.28;1.38;;;;;;;;;;5050608;28;20164;-74
2022/05/13 14:29:34;;;;;;;6.45;1.45;;;;;;;;;;5051053;28;20051;-72
2022/05/13 14:32:08;;;;;;;4.32;1.30;;;;;;;;;;5050667;28;20089;-74
2022/05/13 14:34:35;;;;;;;5.18;1.50;;;;;;;;;;5047990;28;20307;-73
2022/05/13 14:37:04;;;;;;;4.57;1.23;;;;;;;;;;5033074;28;20057;-74
2022/05/13 14:39:51;;;;;;;3.58;1.23;;;;;;;;;;5050202;28;20080;-73
2022/05/13 14:42:27;;;;;;;3.88;1.23;;;;;;;;;;5048204;28;20048;-75
2022/05/13 14:44:58;;;;;;;4.20;1.48;;;;;;;;;;5049290;28;20041;-75
2022/05/13 14:47:24;;;;;;;3.88;1.52;;;;;;;;;;5050230;28;20538;-75
2022/05/13 14:49:58;;;;;;;4.53;1.42;;;;;;;;;;5051973;28;20072;-75
2022/05/13 14:52:26;;;;;;;4.88;1.40;;;;;;;;;;5051661;28;20048;-75
2022/05/13 14:54:56;;;;;;;4.85;1.42;;;;;;;;;;5051633;28;20094;-75
2022/05/13 14:57:23;;;;;;;6.63;1.77;;;;;;;;;;5051595;28;20100;-75
2022/05/13 14:59:50;;;;;;;4.53;1.45;;;;;;;;;;5051181;28;20103;-75
2022/05/13 15:02:28;;;;;;;4.05;1.40;;;;;;;;;;5051550;28;20079;-75
2022/05/13 15:05:03;;;;;;;5.60;1.65;;;;;;;;;;5049999;28;20394;-75
2022/05/13 15:07:41;;;;;;;6.57;1.33;;;;;;;;;;5051330;28;20163;-75
2022/05/13 15:10:12;;;;;;;6.13;1.40;;;;;;;;;;5049966;28;20103;-75
2022/05/13 15:12:38;;;;;;;5.45;1.50;;;;;;;;;;5054066;28;20084;-75
2022/05/13 15:15:05;;;;;;;3.83;1.40;;;;;;;;;;5055585;28;20084;-75
2022/05/13 15:17:36;;;;;;;5.47;1.52;;;;;;;;;;5055243;28;20558;-76
2022/05/13 15:20:04;;;;;;;3.63;1.17;;;;;;;;;;5055695;28;20085;-75
2022/05/13 15:22:30;;;;;;;4.90;1.50;;;;;;;;;;5055034;28;20096;-76
2022/05/13 15:24:57;;;;;;;5.00;1.30;;;;;;;;;;5055271;28;20087;-75
2022/05/13 15:27:25;;;;;;;3.33;1.13;;;;;;;;;;5055004;28;20084;-75
2022/05/13 15:29:52;;;;;;;2.92;1.52;;;;;;;;;;5055463;28;20076;-75
2022/05/13 15:32:19;;;;;;;;;;;;;;;;;;5055545;28;20103;-75
2022/05/13 15:34:45;;;;;;;4.78;1.40;;;;;;;;;;5055219;28;19982;-75